Time;durP1;ratioP1;P1;durP2;ratioP2;P2;SDS_P1;SDS_P2;PMS_P1;PMS_P2;Temp;Humidity;BMP_temperature;BMP_pressure;BME280_temperature;BME280_humidity;BME280_pressure;Samples;Min_cycle;Max_cycle;Signal;HPM_P1;HPM_P2
2022/05/17 00:00:34;;;;;;;7.75;4.18;;;;;;;15.00;71.88;101805.28;4979788;28;20035;-93
2022/05/17 00:02:59;;;;;;;10.07;4.18;;;;;;;14.93;72.14;101810.97;4990661;28;20041;-92
2022/05/17 00:05:25;;;;;;;8.02;4.43;;;;;;;14.90;72.63;101810.28;4985715;28;20117;-93
2022/05/17 00:07:50;;;;;;;8.45;4.95;;;;;;;14.82;72.40;101802.63;4991279;28;20034;-92
2022/05/17 00:10:16;;;;;;;9.27;4.85;;;;;;;14.80;72.67;101804.56;4988422;28;20027;-93
2022/05/17 00:12:41;;;;;;;11.77;4.95;;;;;;;14.79;73.24;101808.16;4986637;28;20057;-91
2022/05/17 00:15:07;;;;;;;9.80;4.82;;;;;;;14.76;72.82;101807.47;4991436;28;20031;-93
2022/05/17 00:17:32;;;;;;;11.57;5.40;;;;;;;14.73;73.01;101813.00;4973960;28;20050;-93
2022/05/17 00:19:58;;;;;;;9.32;5.25;;;;;;;14.65;73.45;101803.53;4991116;28;20026;-92
2022/05/17 00:22:23;;;;;;;10.20;5.22;;;;;;;14.67;73.37;101803.44;4988217;28;20069;-92
2022/05/17 00:24:49;;;;;;;11.88;5.93;;;;;;;14.61;74.02;101810.00;4976782;28;20039;-92
2022/05/17 00:27:14;;;;;;;10.98;5.32;;;;;;;14.56;73.78;101790.63;4983259;28;20084;-93
2022/05/17 00:29:39;;;;;;;11.65;5.20;;;;;;;14.53;74.36;101797.94;4991500;28;20464;-93
2022/05/17 00:32:05;;;;;;;10.55;5.63;;;;;;;14.53;74.38;101804.19;4976846;28;20324;-92
2022/05/17 00:34:31;;;;;;;11.02;5.97;;;;;;;14.49;74.38;101799.91;4983182;28;20391;-92
2022/05/17 00:36:56;;;;;;;16.38;6.70;;;;;;;14.50;74.85;101806.13;4984646;28;20042;-93
2022/05/17 00:39:22;;;;;;;13.05;6.28;;;;;;;14.46;74.81;101789.31;4992165;28;20320;-94
2022/05/17 00:41:47;;;;;;;10.35;5.63;;;;;;;14.51;75.13;101791.81;4984707;28;20014;-94
2022/05/17 00:47:24;;;;;;;12.48;5.88;;;;;;;14.57;74.72;101796.84;4984345;28;20524;-93
2022/05/17 00:50:27;;;;;;;10.40;5.80;;;;;;;14.62;73.89;101792.97;4985239;28;20138;-92
2022/05/17 00:52:58;;;;;;;11.55;5.80;;;;;;;14.61;74.69;101791.25;4982529;28;20039;-92
2022/05/17 00:55:23;;;;;;;8.80;5.90;;;;;;;14.64;75.08;101790.22;4990619;28;20038;-92
2022/05/17 00:57:55;;;;;;;18.77;7.13;;;;;;;14.65;74.81;101787.47;4987365;28;20088;-93
2022/05/17 01:00:22;;;;;;;10.45;5.93;;;;;;;14.61;74.93;101780.53;4984127;28;20306;-94
2022/05/17 01:02:52;;;;;;;13.40;6.07;;;;;;;14.63;74.70;101786.69;4980929;28;20473;-93
2022/05/17 01:05:20;;;;;;;12.30;7.13;;;;;;;14.64;75.12;101787.56;4976633;28;20054;-93
2022/05/17 01:07:51;;;;;;;12.20;6.30;;;;;;;14.60;75.28;101780.63;4972940;28;20066;-93
2022/05/17 01:10:17;;;;;;;10.95;6.45;;;;;;;14.52;75.17;101774.78;4987607;28;20097;-95
2022/05/17 01:12:42;;;;;;;14.45;6.13;;;;;;;14.50;75.24;101784.72;4986329;28;20053;-92
2022/05/17 01:15:11;;;;;;;11.10;6.13;;;;;;;14.45;75.63;101774.22;4983268;28;20388;-93
2022/05/17 01:17:39;;;;;;;10.77;5.57;;;;;;;14.37;75.24;101760.34;4990335;28;20037;-93
2022/05/17 01:20:12;;;;;;;9.35;5.82;;;;;;;14.33;75.27;101765.00;4985413;28;20117;-93
2022/05/17 01:22:37;;;;;;;10.50;6.35;;;;;;;14.35;75.68;101764.94;4978779;28;20022;-93
2022/05/17 01:25:03;;;;;;;13.77;6.07;;;;;;;14.35;75.52;101773.81;4987970;28;20035;-94
2022/05/17 01:27:43;;;;;;;14.50;6.50;;;;;;;14.34;75.96;101776.59;4988824;28;20048;-94
2022/05/17 01:30:22;;;;;;;13.52;5.63;;;;;;;14.25;75.60;101769.88;4984825;28;20039;-94
2022/05/17 01:32:48;;;;;;;8.70;5.70;;;;;;;14.27;76.34;101772.50;4971062;28;20050;-93
2022/05/17 01:35:13;;;;;;;15.40;6.28;;;;;;;14.25;76.09;101774.38;4967679;28;20068;-94
2022/05/17 01:37:39;;;;;;;10.25;6.00;;;;;;;14.18;76.48;101765.81;4977764;28;20093;-93
2022/05/17 01:40:05;;;;;;;11.70;6.50;;;;;;;14.22;76.69;101769.19;4984347;28;20109;-93
2022/05/17 01:42:30;;;;;;;11.63;6.53;;;;;;;14.24;76.67;101772.66;4982443;28;20030;-92
2022/05/17 01:44:56;;;;;;;13.43;7.53;;;;;;;14.24;76.74;101770.84;4980219;28;20150;-93
2022/05/17 01:47:21;;;;;;;13.63;7.10;;;;;;;14.28;76.25;101763.50;4977291;28;20045;-92
2022/05/17 01:49:46;;;;;;;16.60;7.40;;;;;;;14.36;76.24;101767.53;4986889;28;20052;-93
2022/05/17 01:52:12;;;;;;;13.15;6.88;;;;;;;14.40;76.00;101768.22;4979114;28;20022;-93
2022/05/17 01:54:37;;;;;;;13.05;6.68;;;;;;;14.44;75.62;101759.94;4981436;28;20043;-93
2022/05/17 01:57:03;;;;;;;11.15;6.43;;;;;;;14.52;75.36;101769.44;4977412;28;20045;-93
2022/05/17 01:59:28;;;;;;;12.30;7.10;;;;;;;14.55;75.46;101766.59;4987978;28;20038;-93
2022/05/17 02:01:54;;;;;;;10.73;6.28;;;;;;;14.62;75.48;101771.53;4981958;28;20026;-94
2022/05/17 02:04:19;;;;;;;11.45;6.53;;;;;;;14.65;75.41;101774.06;4980699;28;20078;-93
2022/05/17 02:06:44;;;;;;;12.57;6.32;;;;;;;14.67;75.46;101771.28;4986366;28;20022;-93
2022/05/17 02:09:09;;;;;;;12.75;5.82;;;;;;;14.72;75.04;101771.94;4986646;28;20042;-94
2022/05/17 02:11:35;;;;;;;10.32;5.90;;;;;;;14.70;74.47;101768.44;4979555;28;20039;-94
2022/05/17 02:14:01;;;;;;;13.30;6.18;;;;;;;14.77;74.97;101782.41;4975984;28;20087;-93
2022/05/17 02:16:27;;;;;;;12.65;6.13;;;;;;;14.77;75.24;101783.25;4974404;28;20038;-93
2022/05/17 02:18:52;;;;;;;10.90;6.22;;;;;;;14.77;75.01;101766.31;4982196;28;20089;-94
2022/05/17 02:21:17;;;;;;;12.48;6.38;;;;;;;14.79;75.19;101772.44;4980054;28;20074;-94
2022/05/17 02:23:43;;;;;;;8.65;5.55;;;;;;;14.79;74.79;101775.13;4977785;28;20511;-93
2022/05/17 02:26:08;;;;;;;11.38;6.28;;;;;;;14.83;75.04;101780.25;4987165;28;20080;-93
2022/05/17 02:28:35;;;;;;;11.95;5.50;;;;;;;14.86;74.66;101787.25;4975625;28;20023;-93
2022/05/17 02:31:01;;;;;;;10.10;5.47;;;;;;;14.86;74.42;101779.22;4982176;28;20034;-94
2022/05/17 02:33:26;;;;;;;10.10;5.45;;;;;;;14.85;75.07;101777.50;4983848;28;20556;-93
2022/05/17 02:35:51;;;;;;;9.02;5.65;;;;;;;14.92;74.55;101782.44;4988493;28;20043;-94
2022/05/17 02:38:17;;;;;;;11.65;5.35;;;;;;;14.92;74.77;101779.78;4982700;28;20535;-95
2022/05/17 02:40:42;;;;;;;12.30;5.28;;;;;;;14.92;74.15;101784.25;4983315;28;20146;-94
2022/05/17 02:43:12;;;;;;;10.25;4.80;;;;;;;14.93;73.93;101784.19;4984939;28;20022;-93
2022/05/17 02:45:37;;;;;;;11.38;5.50;;;;;;;14.92;74.16;101776.19;4972792;28;20073;-93
2022/05/17 02:48:04;;;;;;;10.52;5.93;;;;;;;14.93;74.12;101775.28;4986744;28;20046;-95
2022/05/17 02:50:29;;;;;;;10.60;5.70;;;;;;;14.97;74.14;101786.69;4978541;28;20599;-94
2022/05/17 02:52:54;;;;;;;9.75;6.22;;;;;;;14.97;74.63;101797.41;4968513;28;20250;-93
2022/05/17 02:55:20;;;;;;;11.60;5.78;;;;;;;14.93;74.35;101784.19;4980109;28;20069;-95
2022/05/17 02:57:45;;;;;;;12.77;6.18;;;;;;;14.97;74.61;101792.06;4987664;28;20038;-94
2022/05/17 03:00:14;;;;;;;10.27;6.63;;;;;;;14.94;74.26;101796.63;4981670;28;20031;-93
2022/05/17 03:02:40;;;;;;;10.77;6.25;;;;;;;14.89;74.71;101787.97;4983793;28;20049;-92
2022/05/17 03:05:06;;;;;;;12.32;6.22;;;;;;;14.86;75.03;101793.50;4985312;28;20030;-93
2022/05/17 03:07:31;;;;;;;11.77;5.97;;;;;;;14.89;74.82;101797.81;4988346;28;20033;-93
2022/05/17 03:09:57;;;;;;;9.35;5.88;;;;;;;14.83;74.71;101787.41;4976535;28;20031;-93
2022/05/17 03:12:22;;;;;;;8.98;5.88;;;;;;;14.83;74.70;101798.13;4982494;28;20042;-93
2022/05/17 03:14:47;;;;;;;8.65;6.00;;;;;;;14.76;75.40;101794.94;4971497;28;20110;-94
2022/05/17 03:17:14;;;;;;;11.90;5.60;;;;;;;14.70;75.10;101798.78;4970651;28;20428;-94
2022/05/17 03:19:40;;;;;;;10.18;6.15;;;;;;;14.63;75.48;101802.75;4971660;28;20045;-92
2022/05/17 03:22:07;;;;;;;11.05;6.18;;;;;;;14.54;75.99;101799.69;4982986;28;20086;-94
2022/05/17 03:24:33;;;;;;;10.68;5.85;;;;;;;14.48;75.91;101808.00;4982313;28;20034;-93
2022/05/17 03:27:00;;;;;;;7.88;5.60;;;;;;;14.41;76.64;101804.78;4963142;28;20117;-94
2022/05/17 03:29:26;;;;;;;12.85;5.45;;;;;;;14.38;76.65;101807.59;4986757;28;20038;-93
2022/05/17 03:31:51;;;;;;;10.80;6.50;;;;;;;14.32;76.98;101808.78;4980245;28;20030;-96
2022/05/17 03:34:17;;;;;;;10.30;6.10;;;;;;;14.28;76.85;101807.22;4984082;28;20388;-94
2022/05/17 03:36:42;;;;;;;10.45;5.85;;;;;;;14.19;77.10;101796.97;4977638;28;20087;-94
2022/05/17 03:39:08;;;;;;;10.20;6.10;;;;;;;14.19;77.17;101796.97;4977344;28;20023;-94
2022/05/17 03:41:33;;;;;;;7.60;5.75;;;;;;;14.12;77.42;101801.78;4984611;28;20089;-93
2022/05/17 03:43:58;;;;;;;12.27;6.10;;;;;;;14.10;77.20;101801.00;4962797;28;20034;-95
2022/05/17 03:46:23;;;;;;;13.05;6.38;;;;;;;14.07;77.44;101801.13;4973629;28;20026;-94
2022/05/17 03:48:49;;;;;;;12.88;6.10;;;;;;;14.07;77.59;101801.13;4985743;28;20319;-94
2022/05/17 03:51:17;;;;;;;10.50;5.97;;;;;;;14.05;77.84;101810.22;4977682;28;20034;-94
2022/05/17 03:53:43;;;;;;;10.80;6.40;;;;;;;14.02;77.57;101810.34;4980487;28;20489;-93
2022/05/17 03:56:09;;;;;;;13.30;6.30;;;;;;;14.02;77.51;101813.03;4981046;28;20026;-94
2022/05/17 03:58:34;;;;;;;12.40;7.35;;;;;;;13.97;77.69;101807.03;4983575;28;20464;-93
2022/05/17 04:01:00;;;;;;;10.98;6.47;;;;;;;14.00;77.87;101812.22;4976677;28;20027;-94
2022/05/17 04:03:25;;;;;;;10.93;6.60;;;;;;;14.01;77.62;101814.84;4984177;28;20101;-93
2022/05/17 04:05:51;;;;;;;12.88;6.80;;;;;;;14.00;78.04;101813.09;4984065;28;20496;-94
2022/05/17 04:08:16;;;;;;;10.15;6.20;;;;;;;14.02;77.33;101813.03;4976393;28;20026;-94
2022/05/17 04:10:41;;;;;;;14.23;6.47;;;;;;;14.02;77.24;101813.03;4981000;28;20023;-95
2022/05/17 04:13:06;;;;;;;11.13;6.50;;;;;;;14.01;77.13;101806.81;4978237;28;20030;-94
2022/05/17 04:15:32;;;;;;;14.60;6.55;;;;;;;14.05;77.03;101799.50;4986492;28;20090;-94
2022/05/17 04:17:57;;;;;;;14.35;7.07;;;;;;;14.15;76.77;101806.13;4990549;28;20030;-94
2022/05/17 04:20:23;;;;;;;13.00;6.65;;;;;;;14.23;77.30;101817.31;4984551;28;20039;-95
2022/05/17 04:22:50;;;;;;;15.70;6.70;;;;;;;14.28;76.45;101817.06;4987210;28;20101;-95
2022/05/17 04:25:21;;;;;;;13.57;6.75;;;;;;;14.32;76.11;101808.78;4981779;28;20037;-94
2022/05/17 04:27:47;;;;;;;11.95;6.63;;;;;;;14.36;76.15;101810.38;4990857;28;20156;-95
2022/05/17 04:30:13;;;;;;;11.23;6.85;;;;;;;14.39;76.17;101814.72;4984350;28;20113;-95
2022/05/17 04:32:38;;;;;;;12.05;6.68;;;;;;;14.42;76.13;101818.09;4986723;28;20073;-95
2022/05/17 04:35:05;;;;;;;10.50;6.60;;;;;;;14.41;75.84;101808.31;4982690;28;20038;-96
2022/05/17 04:37:30;;;;;;;13.13;6.65;;;;;;;14.50;75.66;101822.22;4985884;28;20046;-95
2022/05/17 04:39:55;;;;;;;11.13;6.45;;;;;;;14.55;74.53;101822.88;4980916;28;20070;-95
2022/05/17 04:42:21;;;;;;;12.43;6.60;;;;;;;14.58;74.70;101820.88;4991365;28;20022;-96
2022/05/17 04:44:47;;;;;;;13.32;6.70;;;;;;;14.63;74.82;101823.31;4978091;28;20035;-95
2022/05/17 04:47:12;;;;;;;9.20;6.40;;;;;;;14.71;75.14;101826.44;4979047;28;20106;-95
2022/05/17 04:49:37;;;;;;;11.90;6.82;;;;;;;14.78;74.99;101827.00;4984400;28;20037;-93
2022/05/17 04:52:04;;;;;;;12.57;7.38;;;;;;;14.85;74.65;101828.44;4983583;28;20042;-95
2022/05/17 04:54:29;;;;;;;10.32;6.03;;;;;;;14.89;74.32;101828.19;4984169;28;20050;-94
2022/05/17 04:56:54;;;;;;;12.93;6.85;;;;;;;15.02;73.96;101835.56;4984598;28;20034;-94
2022/05/17 04:59:20;;;;;;;13.75;6.47;;;;;;;15.11;73.90;101827.03;4976187;28;20441;-94
2022/05/17 05:01:46;;;;;;;11.80;6.40;;;;;;;15.16;74.03;101827.63;4978807;28;20031;-94
2022/05/17 05:04:12;;;;;;;12.57;6.47;;;;;;;15.21;73.61;101820.19;4980916;28;20030;-94
2022/05/17 05:06:38;;;;;;;12.43;6.57;;;;;;;15.33;73.33;101829.38;4978446;28;20030;-95
2022/05/17 05:09:03;;;;;;;7.78;6.03;;;;;;;15.44;73.52;101833.22;4987669;28;20061;-94
2022/05/17 05:11:28;;;;;;;11.25;6.40;;;;;;;15.54;72.46;101835.38;4978273;28;20472;-94
2022/05/17 05:13:54;;;;;;;10.85;6.32;;;;;;;15.59;71.96;101823.44;4980026;28;20429;-94
2022/05/17 05:16:19;;;;;;;9.57;6.30;;;;;;;15.64;72.38;101834.81;4990491;28;20033;-94
2022/05/17 05:18:44;;;;;;;9.18;5.70;;;;;;;15.70;71.02;101844.34;4977027;28;20476;-93
2022/05/17 05:21:14;;;;;;;10.70;6.55;;;;;;;15.74;71.44;101850.41;4966333;28;20049;-94
2022/05/17 05:23:42;;;;;;;13.52;6.38;;;;;;;15.74;71.02;101851.25;4985912;28;20062;-92
2022/05/17 05:26:10;;;;;;;13.13;7.35;;;;;;;15.74;69.84;101851.25;4990362;28;20034;-91
2022/05/17 05:28:36;;;;;;;17.13;8.02;;;;;;;15.71;70.40;101862.16;4987497;28;20030;-92
2022/05/17 05:31:03;;;;;;;11.50;6.00;;;;;;;15.68;70.00;101855.16;4979005;28;20042;-92
2022/05/17 05:33:29;;;;;;;12.18;5.53;;;;;;;15.74;69.56;101866.50;4972291;28;20030;-91
2022/05/17 05:35:54;;;;;;;9.85;5.00;;;;;;;15.73;69.46;101859.41;4977553;28;20023;-91
2022/05/17 05:38:20;;;;;;;7.88;4.93;;;;;;;15.79;69.78;101859.06;4967208;28;20053;-92
2022/05/17 05:40:46;;;;;;;9.90;5.38;;;;;;;15.87;69.58;101859.47;4978813;28;20026;-93
2022/05/17 05:43:11;;;;;;;9.98;5.22;;;;;;;15.98;69.09;101865.13;4984403;28;20507;-93
2022/05/17 05:45:37;;;;;;;8.65;4.95;;;;;;;16.09;68.95;101868.06;4984322;28;20034;-93
2022/05/17 05:48:02;;;;;;;9.65;4.78;;;;;;;16.15;68.60;101881.13;4990040;28;20088;-89
2022/05/17 05:50:28;;;;;;;10.68;4.57;;;;;;;16.24;68.09;101868.09;4970459;28;20046;-91
2022/05/17 05:53:06;;;;;;;9.10;4.63;;;;;;;16.23;68.10;101874.44;4976295;28;20054;-95
2022/05/17 05:55:33;;;;;;;8.18;4.95;;;;;;;16.19;68.09;101876.44;4973653;28;20104;-92
2022/05/17 05:57:58;;;;;;;13.10;4.93;;;;;;;16.13;67.93;101868.72;4979262;28;20058;-94
2022/05/17 06:00:25;;;;;;;12.15;4.18;;;;;;;16.16;67.94;101880.16;4981708;28;20091;-92
2022/05/17 06:02:50;;;;;;;12.82;5.63;;;;;;;16.20;67.99;101867.41;4970340;28;20547;-95
2022/05/17 06:05:16;;;;;;;9.25;4.25;;;;;;;16.20;67.73;101875.47;4987295;28;20104;-93
2022/05/17 06:07:41;;;;;;;12.75;6.88;;;;;;;16.23;67.80;101869.94;4980349;28;20058;-94
2022/05/17 06:10:08;;;;;;;10.65;5.88;;;;;;;16.32;67.74;101873.91;4983382;28;20117;-94
2022/05/17 06:12:33;;;;;;;10.98;5.10;;;;;;;16.38;67.81;101863.63;4981749;28;20411;-95
2022/05/17 06:14:58;;;;;;;10.35;4.70;;;;;;;16.56;67.72;101874.28;4974613;28;20028;-94
2022/05/17 06:17:27;;;;;;;8.18;4.22;;;;;;;16.65;67.60;101881.78;4979351;28;20034;-93
2022/05/17 06:19:56;;;;;;;8.63;4.45;;;;;;;16.70;66.39;101877.00;4978949;28;20034;-92
2022/05/17 06:22:22;;;;;;;12.13;4.30;;;;;;;16.72;66.39;101880.47;4985768;28;20031;-94
2022/05/17 06:24:47;;;;;;;13.18;4.60;;;;;;;16.76;67.04;101884.75;4979799;28;20034;-93
2022/05/17 06:27:13;;;;;;;13.43;5.43;;;;;;;16.78;67.19;101880.13;4987588;28;20101;-92
2022/05/17 06:29:40;;;;;;;12.38;5.00;;;;;;;16.79;66.75;101884.53;4986588;28;20038;-92
2022/05/17 06:32:10;;;;;;;11.30;4.05;;;;;;;16.84;66.16;101887.81;4979545;28;20156;-92
2022/05/17 06:34:36;;;;;;;11.90;3.95;;;;;;;16.87;65.46;101882.25;4976241;28;20226;-92
2022/05/17 06:37:01;;;;;;;8.13;4.15;;;;;;;16.90;65.40;101891.97;4980514;28;20037;-93
2022/05/17 06:39:27;;;;;;;7.57;4.05;;;;;;;16.93;65.31;101886.41;4979111;28;20066;-92
2022/05/17 06:41:55;;;;;;;9.93;4.15;;;;;;;16.94;65.20;101893.50;4987853;28;20037;-92
2022/05/17 06:44:20;;;;;;;8.50;4.10;;;;;;;16.90;64.96;101882.06;4977040;28;20085;-93
2022/05/17 06:46:45;;;;;;;8.50;4.28;;;;;;;16.92;65.69;101890.03;4983273;28;20111;-91
2022/05/17 06:49:11;;;;;;;9.82;4.00;;;;;;;16.90;64.89;101892.81;4960905;28;20081;-92
2022/05/17 06:51:37;;;;;;;10.00;3.35;;;;;;;16.93;65.34;101900.72;4970326;28;20476;-93
2022/05/17 06:54:03;;;;;;;8.23;3.90;;;;;;;16.92;64.63;101896.28;4976115;28;20065;-92
2022/05/17 06:56:28;;;;;;;8.95;3.60;;;;;;;16.94;64.64;101901.56;4977512;28;20031;-93
2022/05/17 06:58:53;;;;;;;8.07;3.83;;;;;;;16.93;64.48;101900.72;4973142;28;20038;-92
2022/05/17 07:01:19;;;;;;;8.15;4.00;;;;;;;16.93;64.96;101908.78;4985372;28;20026;-94
2022/05/17 07:03:44;;;;;;;10.43;4.57;;;;;;;16.96;65.15;101912.22;4970059;28;20459;-93
2022/05/17 07:06:10;;;;;;;6.03;3.85;;;;;;;16.93;65.22;101914.16;4976653;28;20591;-92
2022/05/17 07:08:35;;;;;;;8.35;3.55;;;;;;;16.95;64.92;101911.38;4978719;28;20125;-92
2022/05/17 07:13:44;;;;;;;12.23;4.40;;;;;;;17.00;65.24;101905.69;4971399;28;20081;-94
2022/05/17 07:16:10;;;;;;;8.95;4.13;;;;;;;17.03;65.35;101900.16;4972834;28;20066;-94
2022/05/17 07:18:35;;;;;;;6.88;3.38;;;;;;;17.07;65.29;101909.75;4981360;28;20057;-94
2022/05/17 07:21:00;;;;;;;7.60;3.47;;;;;;;17.09;65.75;101908.69;4972497;28;20407;-95
2022/05/17 07:23:26;;;;;;;8.95;3.72;;;;;;;17.15;66.95;101910.16;4978460;28;20105;-94
2022/05/17 07:25:53;;;;;;;6.10;3.10;;;;;;;17.22;65.87;101908.78;4987249;28;20029;-93
2022/05/17 07:28:22;;;;;;;7.60;3.55;;;;;;;17.29;64.48;101915.53;4971934;28;21135;-92
2022/05/17 07:30:47;;;;;;;14.85;4.25;;;;;;;17.36;64.14;101919.59;4974354;28;20113;-93
2022/05/17 07:33:13;;;;;;;11.75;4.20;;;;;;;17.40;64.44;101921.13;4980401;28;20023;-92
2022/05/17 07:35:38;;;;;;;9.82;4.32;;;;;;;17.43;65.79;101915.56;4982723;28;20041;-93
2022/05/17 07:38:06;;;;;;;11.82;4.97;;;;;;;17.38;66.55;101914.97;4978910;28;20055;-93
2022/05/17 07:40:31;;;;;;;10.45;5.35;;;;;;;17.34;66.92;101918.78;4973073;28;20030;-87
2022/05/17 07:42:57;;;;;;;13.43;5.07;;;;;;;17.30;66.77;101914.56;4975618;28;20042;-90
2022/05/17 07:45:22;;;;;;;11.90;5.63;;;;;;;17.33;66.19;101917.06;4975920;28;20026;-90
2022/05/17 07:47:47;;;;;;;9.98;4.88;;;;;;;17.35;66.09;101915.16;4986017;28;20026;-88
2022/05/17 07:50:13;;;;;;;7.90;5.32;;;;;;;17.38;66.29;101914.97;4981668;28;20085;-89
2022/05/17 07:52:38;;;;;;;13.27;5.65;;;;;;;17.32;65.59;101915.34;4983463;28;20046;-89
2022/05/17 07:55:04;;;;;;;10.48;4.88;;;;;;;17.33;66.73;101927.84;4981084;28;20037;-89
2022/05/17 07:57:30;;;;;;;13.48;5.15;;;;;;;17.31;67.14;101929.78;4981141;28;20388;-91
2022/05/17 07:59:55;;;;;;;11.68;5.28;;;;;;;17.33;68.48;101917.06;4987494;28;20069;-92
2022/05/17 08:02:21;;;;;;;13.15;5.25;;;;;;;17.43;68.17;101928.13;4989592;28;20234;-95
2022/05/17 08:04:46;;;;;;;8.13;4.88;;;;;;;17.57;67.51;101924.59;4985650;28;20121;-94
2022/05/17 08:07:12;;;;;;;12.18;4.90;;;;;;;17.79;67.36;101922.28;4989078;28;20034;-94
2022/05/17 08:09:37;;;;;;;10.52;5.43;;;;;;;17.98;67.32;101926.50;4980425;28;20459;-94
2022/05/17 08:12:07;;;;;;;9.25;4.88;;;;;;;18.20;67.04;101931.34;4983001;28;20035;-95
2022/05/17 08:14:34;;;;;;;9.73;5.00;;;;;;;18.36;65.85;101927.53;4986428;28;20037;-94
2022/05/17 08:17:00;;;;;;;13.88;5.40;;;;;;;18.48;65.09;101933.09;4992628;28;20049;-95
2022/05/17 08:19:25;;;;;;;9.43;5.35;;;;;;;18.47;64.37;101924.09;4986223;28;20237;-95
2022/05/17 08:21:51;;;;;;;13.60;5.63;;;;;;;18.52;65.33;101923.78;4994920;28;20038;-96
2022/05/17 08:24:16;;;;;;;12.30;5.07;;;;;;;18.65;65.14;101930.09;4990076;28;20105;-95
2022/05/17 08:29:25;;;;;;;11.82;5.40;;;;;;;18.85;63.74;101934.16;4964752;28;20105;-95
2022/05/17 08:34:34;;;;;;;9.05;5.65;;;;;;;18.81;65.25;101932.63;4984292;28;20045;-96
2022/05/17 08:36:59;;;;;;;9.73;4.95;;;;;;;18.69;65.42;101925.38;4971605;28;20026;-96
2022/05/17 08:39:28;;;;;;;9.75;5.53;;;;;;;18.65;64.92;101924.72;4976529;28;20477;-96
2022/05/17 08:41:59;;;;;;;10.75;5.40;;;;;;;18.67;64.64;101929.03;4977605;28;20084;-95
2022/05/17 08:44:48;;;;;;;12.32;5.38;;;;;;;18.87;63.66;101922.31;4983535;28;20030;-96
2022/05/17 08:47:24;;;;;;;11.27;5.18;;;;;;;18.93;63.21;101915.63;4976746;28;20625;-95
2022/05/17 08:49:52;;;;;;;10.55;5.43;;;;;;;18.89;63.42;101919.50;4994605;28;20045;-96
2022/05/17 08:52:21;;;;;;;8.63;5.90;;;;;;;18.94;63.81;101919.19;5137190;23;20053;-94
2022/05/17 08:55:27;;;;;;;9.65;5.80;;;;;;;19.10;63.53;101906.34;4964959;28;20049;-94
2022/05/17 08:58:27;;;;;;;10.68;5.90;;;;;;;19.23;63.31;101918.03;4912432;29;20036;-94
2022/05/17 09:00:59;;;;;;;10.52;5.60;;;;;;;19.40;62.81;101919.53;4910785;29;20043;-94
2022/05/17 09:03:56;;;;;;;9.70;5.60;;;;;;;19.72;62.08;101927.19;4916365;29;20132;-96
2022/05/17 09:06:46;;;;;;;8.70;5.90;;;;;;;19.95;61.38;101929.09;4911472;29;20032;-96
2022/05/17 09:09:23;;;;;;;11.48;6.05;;;;;;;20.19;60.68;101925.53;4917625;29;20036;-96
2022/05/17 09:11:57;;;;;;;15.02;6.78;;;;;;;20.39;60.23;101923.06;4914068;29;20055;-96
2022/05/17 09:14:27;;;;;;;12.75;7.85;;;;;;;20.53;59.14;101923.91;4910094;29;20059;-96
2022/05/17 09:17:07;;;;;;;14.52;8.15;;;;;;;20.63;59.42;101936.63;4921760;29;20086;-96
2022/05/17 09:19:33;;;;;;;13.25;7.35;;;;;;;20.47;59.72;101935.16;4915300;29;20067;-96
2022/05/17 09:22:00;;;;;;;16.73;8.50;;;;;;;20.37;60.46;101924.19;4917443;29;20168;-94
2022/05/17 09:24:30;;;;;;;14.77;9.45;;;;;;;20.12;60.25;101930.56;4915910;29;20040;-96
2022/05/17 09:27:06;;;;;;;14.13;9.77;;;;;;;19.90;61.26;101923.16;4920571;29;20028;-96
2022/05/17 09:29:45;;;;;;;17.55;9.80;;;;;;;19.81;61.56;101929.22;4928696;29;20119;-95
2022/05/17 09:32:12;;;;;;;14.95;10.35;;;;;;;19.68;64.73;101931.06;4949631;28;20053;-95
2022/05/17 09:34:45;;;;;;;17.38;11.52;;;;;;;19.59;65.10;101921.78;4968950;28;20034;-94
2022/05/17 09:37:18;;;;;;;15.68;10.70;;;;;;;19.22;68.18;101923.53;4962177;28;20024;-93
2022/05/17 09:39:49;;;;;;;15.65;10.68;;;;;;;18.81;70.95;101922.75;4977374;28;20027;-95
2022/05/17 09:42:26;;;;;;;14.80;9.43;;;;;;;18.41;70.88;101917.31;4978140;28;20022;-96
2022/05/17 09:44:56;;;;;;;15.73;11.27;;;;;;;18.09;75.05;101921.25;4973922;28;20091;-95
2022/05/17 09:47:33;;;;;;;15.13;9.48;;;;;;;17.84;74.36;101912.06;4970506;28;20035;-95
2022/05/17 09:53:10;;;;;;;13.13;9.20;;;;;;;18.04;74.86;101901.84;4972413;28;20404;-94
2022/05/17 09:55:37;;;;;;;13.90;9.07;;;;;;;18.39;74.62;101895.00;4962499;28;20369;-89
2022/05/17 09:58:04;;;;;;;18.10;9.20;;;;;;;18.86;72.42;101887.34;4968144;28;20037;-89
2022/05/17 10:00:41;;;;;;;13.48;8.35;;;;;;;19.33;71.84;101888.53;4966157;28;20049;-91
2022/05/17 10:03:28;;;;;;;16.25;8.63;;;;;;;19.76;69.60;101886.31;4969841;28;20468;-89
2022/05/17 10:06:02;;;;;;;14.23;8.50;;;;;;;20.21;67.47;101886.59;4957737;28;20459;-91
2022/05/17 10:08:32;;;;;;;16.15;8.55;;;;;;;20.68;66.47;101884.88;4970573;28;20031;-96
2022/05/17 10:11:12;;;;;;;13.70;8.45;;;;;;;21.24;64.97;101885.00;4971297;28;20054;-96
2022/05/17 10:14:01;;;;;;;16.42;8.95;;;;;;;22.13;63.32;101878.66;4975121;28;20019;-95
2022/05/17 10:16:35;;;;;;;12.27;7.55;;;;;;;22.94;59.03;101876.31;4968237;28;20031;-90
2022/05/17 10:19:05;;;;;;;15.00;9.98;;;;;;;23.96;57.64;101870.91;4974013;28;20035;-96
2022/05/17 10:21:40;;;;;;;14.98;8.82;;;;;;;25.78;52.86;101868.03;4974721;28;20037;-92
2022/05/17 10:24:43;;;;;;;14.52;8.32;;;;;;;27.54;51.41;101865.41;4969986;28;20034;-95
2022/05/17 10:27:19;;;;;;;11.30;8.35;;;;;;;28.40;45.36;101865.19;4966078;28;20124;-94
2022/05/17 10:29:51;;;;;;;13.13;8.52;;;;;;;30.08;42.12;101868.84;4967905;28;20031;-90
2022/05/17 10:32:24;;;;;;;12.10;7.20;;;;;;;31.63;35.82;101862.78;4968595;28;20555;-95
2022/05/17 10:34:57;;;;;;;11.55;6.90;;;;;;;32.18;35.35;101860.47;4965532;28;20092;-95
2022/05/17 10:37:36;;;;;;;10.38;6.57;;;;;;;31.06;36.33;101865.31;4951953;28;20457;-91
2022/05/17 10:40:11;;;;;;;10.73;6.57;;;;;;;29.54;37.80;101866.88;4968193;28;20046;-89
2022/05/17 10:42:37;;;;;;;14.10;6.82;;;;;;;27.89;38.15;101853.44;4964387;28;20113;-93
2022/05/17 10:45:05;;;;;;;9.48;6.00;;;;;;;26.95;41.32;101858.91;4963496;28;20396;-89
2022/05/17 10:47:46;;;;;;;10.50;6.30;;;;;;;26.40;43.93;101859.13;4963730;28;20034;-90
2022/05/17 10:50:41;;;;;;;9.20;5.30;;;;;;;26.32;45.32;101858.03;4950396;28;20034;-92
2022/05/17 10:53:18;;;;;;;10.32;5.18;;;;;;;25.96;43.51;101862.66;4964577;28;20040;-89
2022/05/17 10:56:20;;;;;;;10.05;5.35;;;;;;;25.87;44.29;101866.28;4966040;28;20130;-93
2022/05/17 10:59:20;;;;;;;10.02;5.68;;;;;;;26.17;43.50;101869.66;4959579;28;20027;-92
2022/05/17 11:02:07;;;;;;;10.07;4.80;;;;;;;26.31;43.55;101852.75;4949582;28;20142;-93
2022/05/17 11:05:08;;;;;;;8.70;4.07;;;;;;;26.44;42.96;101853.25;4966080;28;20069;-92
2022/05/17 11:07:44;;;;;;;9.18;4.18;;;;;;;26.73;41.28;101843.91;4959200;28;20043;-95
2022/05/17 11:10:24;;;;;;;11.40;3.50;;;;;;;27.36;41.42;101838.16;4962190;28;20563;-92
2022/05/17 11:12:54;;;;;;;7.80;3.22;;;;;;;27.75;38.51;101849.44;4966565;28;20560;-94
2022/05/17 11:15:35;;;;;;;6.82;3.10;;;;;;;28.56;37.75;101833.34;4962900;28;20035;-91
2022/05/17 11:18:13;;;;;;;5.60;2.95;;;;;;;29.39;36.26;101835.75;4965899;28;20035;-96
2022/05/17 11:20:47;;;;;;;6.93;3.38;;;;;;;30.93;34.61;101821.97;4970456;28;20031;-90
2022/05/17 11:23:42;;;;;;;7.88;2.90;;;;;;;32.80;32.08;101812.91;4972108;28;20507;-95
2022/05/17 11:26:27;;;;;;;7.63;2.92;;;;;;;33.79;30.39;101814.53;4957433;28;20063;-92
2022/05/17 11:29:20;;;;;;;5.18;2.47;;;;;;;34.47;28.16;101807.00;4967356;28;20252;-95
2022/05/17 11:31:54;;;;;;;7.30;2.67;;;;;;;34.78;27.80;101808.25;4967132;28;20030;-93
2022/05/17 11:34:23;;;;;;;6.22;2.35;;;;;;;35.39;24.57;101810.69;4963941;28;20023;-94
2022/05/17 11:36:56;;;;;;;7.90;2.72;;;;;;;35.99;24.38;101814.03;4963650;28;20038;-90
2022/05/17 11:39:36;;;;;;;6.88;2.22;;;;;;;37.30;25.42;101803.91;4968801;28;20480;-91
2022/05/17 11:42:05;;;;;;;5.97;2.22;;;;;;;37.01;24.02;101806.38;4963907;28;20074;-90